logo
Rechercher aéroport 
image banner adimage banner adimage banner ad
image banner ad

CN26 - Rodgers Flat

Situé à Belden, United States

ICAO - CN26, IATA -

Données fournies par Airmate  

Information générale

Coordonnées: N39°57'43" W121°16'39"
Élévation : 2040 feet MSL.
Variation magnétique : 17° East
Voir autres Aéroports à California

Données opérationnelles

Special qualification required
Heure actuelle UTC:
Heure actuelle locale:
Météo à : KCIC - Chico Muni ( 53 km )
METAR: KCIC 261515Z AUTO 00000KT 10SM CLR 21/13 A2996 RMK AO1
Voir NOTAMs / SUP AIP / TFR affectant cet aéroport [VIEW]
Fréquences de communication: [VIEW]

Pistes:

Coordonnées de l'aéroport

Adresse: Belden United States

Vue satellite de CN26